createdAt,value
2022-10-10T00:00:10.436Z,99949.47
2022-10-10T00:01:44.932Z,99944.53
2022-10-10T00:03:17.594Z,99950.28
2022-10-10T00:08:55.393Z,99945.19
2022-10-10T00:10:29.288Z,99943.06
2022-10-10T00:11:14.277Z,99937.06
2022-10-10T00:12:44.688Z,99936.72
2022-10-10T00:13:31.371Z,99941.34
2022-10-10T00:14:15.524Z,99935.31
2022-10-10T00:15:01.338Z,99939.88
2022-10-10T00:15:48.813Z,99935.31
2022-10-10T00:17:19.843Z,99933.97
2022-10-10T00:18:05.190Z,99938.03
2022-10-10T00:18:48.631Z,99935.31
2022-10-10T00:21:57.798Z,99929.03
2022-10-10T00:32:04.114Z,99940.31
2022-10-10T00:32:48.800Z,99935.50
2022-10-10T00:33:31.978Z,99931.94
2022-10-10T00:34:15.837Z,99932.25
2022-10-10T00:34:59.560Z,99935.25
2022-10-10T00:35:41.599Z,99939.81
2022-10-10T00:36:27.367Z,99939.91
2022-10-10T00:37:12.515Z,99945.25
2022-10-10T00:37:58.219Z,99939.81
2022-10-10T00:38:43.398Z,99939.00
2022-10-10T00:39:28.169Z,99933.75
2022-10-10T00:40:12.954Z,99935.38
2022-10-10T00:40:55.887Z,99938.13
2022-10-10T00:41:42.341Z,99937.31
2022-10-10T00:42:28.458Z,99932.44
2022-10-10T00:43:12.887Z,99937.31
2022-10-10T00:43:58.957Z,99941.72
2022-10-10T00:44:46.762Z,99938.00
2022-10-10T00:45:31.191Z,99933.53
2022-10-10T00:46:15.647Z,99934.88
2022-10-10T00:47:01.718Z,99940.63
2022-10-10T00:47:46.417Z,99937.69
2022-10-10T00:48:29.998Z,99934.44
2022-10-10T00:49:12.199Z,99937.69
2022-10-10T00:49:56.320Z,99937.41
2022-10-10T00:50:41.696Z,99933.63
2022-10-10T00:51:29.555Z,99939.38
2022-10-10T00:52:15.721Z,99938.81
2022-10-10T00:52:57.954Z,99941.31
2022-10-10T00:53:46.462Z,99939.69
2022-10-10T00:54:29.453Z,99930.63
2022-10-10T00:55:16.799Z,99941.81
2022-10-10T00:56:11.835Z,99938.50
2022-10-10T00:56:57.309Z,99942.06
2022-10-10T00:57:43.331Z,99942.53
2022-10-10T00:58:27.880Z,99934.69
2022-10-10T00:59:11.305Z,99930.22
2022-10-10T00:59:52.439Z,99935.16
2022-10-10T01:00:39.108Z,99932.44
2022-10-10T01:01:22.146Z,99927.78
2022-10-10T01:02:07.409Z,99933.47
2022-10-10T01:02:52.637Z,99932.44
2022-10-10T01:03:37.831Z,99931.13
2022-10-10T01:04:22.478Z,99928.69
2022-10-10T01:05:05.683Z,99932.75
2022-10-10T01:05:50.378Z,99931.13
2022-10-10T01:06:32.542Z,99927.06
2022-10-10T01:07:17.915Z,99926.56
2022-10-10T01:08:01.337Z,99925.75
2022-10-10T01:08:45.876Z,99930.91
2022-10-10T01:09:29.955Z,99933.88
2022-10-10T01:10:11.128Z,99934.44
2022-10-10T01:10:57.054Z,99936.28
2022-10-10T01:11:41.392Z,99928.59
2022-10-10T01:12:25.460Z,99926.97
2022-10-10T01:13:09.647Z,99931.44
2022-10-10T01:13:58.737Z,99932.81
2022-10-10T01:14:44.923Z,99927.97
2022-10-10T01:15:28.743Z,99928.47
2022-10-10T01:16:11.216Z,99925.16
2022-10-10T01:16:56.487Z,99921.31
2022-10-10T01:17:42.174Z,99927.38
2022-10-10T01:18:27.268Z,99923.81
2022-10-10T01:19:11.366Z,99929.88
2022-10-10T01:19:54.224Z,99923.81
2022-10-10T01:20:39.337Z,99929.81
2022-10-10T01:21:24.615Z,99925.16
2022-10-10T01:22:09.601Z,99921.16
2022-10-10T01:22:55.092Z,99924.41
2022-10-10T01:23:39.236Z,99921.38
2022-10-10T01:24:27.262Z,99924.41
2022-10-10T01:25:10.529Z,99926.09
2022-10-10T01:25:54.397Z,99922.78
2022-10-10T01:26:37.610Z,99918.81
2022-10-10T01:27:21.123Z,99923.38
2022-10-10T01:28:05.277Z,99926.03
2022-10-10T01:28:47.445Z,99922.56
2022-10-10T01:29:29.512Z,99919.84
2022-10-10T01:30:17.061Z,99926.34
2022-10-10T01:30:58.574Z,99923.97
2022-10-10T01:31:45.872Z,99925.53
2022-10-10T01:32:32.508Z,99921.47
2022-10-10T01:33:18.279Z,99930.75
2022-10-10T01:34:03.803Z,99921.75
2022-10-10T01:34:48.921Z,99930.16
2022-10-10T01:35:33.752Z,99924.78
2022-10-10T01:36:18.982Z,99928.09
2022-10-10T01:37:55.634Z,99925.88
2022-10-10T01:38:38.696Z,99925.38
2022-10-10T01:39:21.743Z,99925.94
2022-10-10T01:40:05.682Z,99924.84
2022-10-10T01:40:50.305Z,99918.81
2022-10-10T01:41:34.066Z,99922.13
2022-10-10T01:42:18.283Z,99919.84
2022-10-10T01:43:00.130Z,99921.53
2022-10-10T01:43:44.837Z,99921.22
2022-10-10T01:44:30.696Z,99925.00
2022-10-10T01:45:20.385Z,99917.09
2022-10-10T01:46:04.316Z,99916.81
2022-10-10T01:46:47.751Z,99918.28
2022-10-10T01:47:33.777Z,99916.13
2022-10-10T01:48:20.226Z,99915.56
2022-10-10T01:49:04.098Z,99916.66
2022-10-10T01:49:47.286Z,99906.78
2022-10-10T01:50:30.965Z,99914.44
2022-10-10T01:51:15.799Z,99916.28
2022-10-10T01:51:59.811Z,99913.56
2022-10-10T01:52:44.144Z,99910.78
2022-10-10T01:53:26.808Z,99912.16
2022-10-10T01:54:09.480Z,99905.97
2022-10-10T01:54:53.365Z,99905.16
2022-10-10T01:55:42.559Z,99905.91
2022-10-10T01:56:35.055Z,99907.53
2022-10-10T01:57:19.787Z,99908.56
2022-10-10T01:58:03.293Z,99893.13
2022-10-10T01:58:52.340Z,99900.22
2022-10-10T01:59:37.035Z,99901.25
2022-10-10T02:00:20.897Z,99896.31
2022-10-10T02:01:09.934Z,99896.09
2022-10-10T02:01:56.374Z,99897.78
2022-10-10T02:02:40.338Z,99888.50
2022-10-10T02:03:25.451Z,99889.31
2022-10-10T02:04:13.558Z,99900.22
2022-10-10T02:05:00.348Z,99895.34
2022-10-10T02:05:45.469Z,99887.97
2022-10-10T02:06:28.734Z,99889.81
2022-10-10T02:07:16.400Z,99892.03
2022-10-10T02:07:59.765Z,99897.19
2022-10-10T02:08:42.013Z,99889.31
2022-10-10T02:09:27.436Z,99892.03
2022-10-10T02:10:12.183Z,99890.41
2022-10-10T02:10:56.746Z,99892.63
2022-10-10T02:11:39.405Z,99891.50
2022-10-10T02:12:24.126Z,99886.34
2022-10-10T02:13:09.869Z,99893.13
2022-10-10T02:13:53.414Z,99891.72
2022-10-10T02:14:38.700Z,99883.03
2022-10-10T02:15:24.476Z,99881.13
2022-10-10T02:16:08.033Z,99878.59
2022-10-10T02:16:54.950Z,99892.03
2022-10-10T02:17:37.226Z,99877.78
2022-10-10T02:18:20.613Z,99876.16
2022-10-10T02:19:03.182Z,99882.81
2022-10-10T02:19:49.053Z,99883.03
2022-10-10T02:20:31.531Z,99881.13
2022-10-10T02:21:15.766Z,99876.97
2022-10-10T02:21:58.694Z,99881.69
2022-10-10T02:22:42.078Z,99877.66
2022-10-10T02:23:25.849Z,99880.59
2022-10-10T02:24:08.339Z,99883.84
2022-10-10T02:24:51.851Z,99882.22
2022-10-10T02:25:37.260Z,99882.50
2022-10-10T02:26:28.778Z,99880.06
2022-10-10T02:27:11.596Z,99882.81
2022-10-10T02:27:56.629Z,99878.69
2022-10-10T02:28:41.398Z,99875.13
2022-10-10T02:29:23.260Z,99872.13
2022-10-10T02:30:07.461Z,99878.38
2022-10-10T02:30:56.569Z,99876.16
2022-10-10T02:31:42.963Z,99881.03
2022-10-10T02:32:27.439Z,99878.59
2022-10-10T02:33:13.906Z,99884.34
2022-10-10T02:34:03.344Z,99877.56
2022-10-10T02:34:48.644Z,99871.31
2022-10-10T02:35:38.380Z,99874.91
2022-10-10T02:36:24.254Z,99869.69
2022-10-10T02:37:08.508Z,99870.19
2022-10-10T02:37:51.897Z,99877.28
2022-10-10T02:38:35.367Z,99868.28
2022-10-10T02:39:19.052Z,99868.28
2022-10-10T02:40:05.795Z,99866.88
2022-10-10T02:40:51.952Z,99869.91
2022-10-10T02:41:36.726Z,99862.81
2022-10-10T02:42:25.306Z,99873.00
2022-10-10T02:43:09.735Z,99869.47
2022-10-10T02:43:54.403Z,99874.91
2022-10-10T02:44:41.255Z,99863.19
2022-10-10T02:45:27.343Z,99871.09
2022-10-10T02:46:09.169Z,99862.59
2022-10-10T02:46:53.563Z,99868.06
2022-10-10T02:47:37.965Z,99873.50
2022-10-10T02:48:22.181Z,99868.88
2022-10-10T02:49:07.692Z,99864.53
2022-10-10T02:49:52.419Z,99862.38
2022-10-10T02:50:39.542Z,99864.81
2022-10-10T02:51:24.931Z,99860.16
2022-10-10T02:52:08.893Z,99876.75
2022-10-10T02:52:54.662Z,99866.44
2022-10-10T02:53:38.361Z,99869.69
2022-10-10T02:54:24.129Z,99871.38
2022-10-10T02:55:09.057Z,99866.13
2022-10-10T02:55:53.571Z,99860.97
2022-10-10T02:56:36.897Z,99860.47
2022-10-10T02:57:20.592Z,99867.59
2022-10-10T02:58:06.189Z,99858.03
2022-10-10T02:58:51.940Z,99863.78
2022-10-10T02:59:37.743Z,99858.03
2022-10-10T03:00:20.017Z,99862.16
2022-10-10T03:01:05.591Z,99858.31
2022-10-10T03:01:50.636Z,99857.66
2022-10-10T03:02:31.690Z,99857.13
2022-10-10T03:03:15.554Z,99853.38
2022-10-10T03:03:57.975Z,99855.53
2022-10-10T03:04:41.949Z,99856.63
2022-10-10T03:05:27.210Z,99853.91
2022-10-10T03:06:11.542Z,99851.69
2022-10-10T03:06:55.762Z,99860.38
2022-10-10T03:07:41.362Z,99848.44
2022-10-10T03:08:24.964Z,99849.47
2022-10-10T03:09:15.967Z,99848.06
2022-10-10T03:09:58.965Z,99852.28
2022-10-10T03:10:43.157Z,99850.13
2022-10-10T03:11:26.187Z,99849.03
2022-10-10T03:12:09.617Z,99849.03
2022-10-10T03:12:54.112Z,99850.66
2022-10-10T03:13:38.913Z,99852.06
2022-10-10T03:14:28.594Z,99851.25
2022-10-10T03:15:12.165Z,99854.19
2022-10-10T03:15:56.150Z,99847.34
2022-10-10T03:16:40.563Z,99845.41
2022-10-10T03:17:25.335Z,99852.28
2022-10-10T03:18:11.076Z,99849.31
2022-10-10T03:18:55.001Z,99852.34
2022-10-10T03:19:38.062Z,99856.75
2022-10-10T03:20:23.362Z,99850.44
2022-10-10T03:21:09.016Z,99852.56
2022-10-10T03:21:52.877Z,99849.63
2022-10-10T03:22:37.218Z,99852.63
2022-10-10T03:23:22.796Z,99852.06
2022-10-10T03:24:05.603Z,99852.56
2022-10-10T03:24:54.703Z,99850.34
2022-10-10T03:25:39.539Z,99847.63
2022-10-10T03:26:23.474Z,99847.34
2022-10-10T03:27:08.309Z,99842.16
2022-10-10T03:27:52.844Z,99849.25
2022-10-10T03:28:40.057Z,99850.66
2022-10-10T03:29:26.907Z,99851.97
2022-10-10T03:30:10.482Z,99848.97
2022-10-10T03:30:55.319Z,99853.16
2022-10-10T03:31:41.180Z,99844.16
2022-10-10T03:32:33.392Z,99845.19
2022-10-10T03:33:18.436Z,99843.78
2022-10-10T03:34:03.875Z,99845.78
2022-10-10T03:34:49.252Z,99846.59
2022-10-10T03:35:35.440Z,99846.31
2022-10-10T03:36:23.597Z,99839.50
2022-10-10T03:37:10.376Z,99850.34
2022-10-10T03:37:56.079Z,99843.34
2022-10-10T03:38:41.163Z,99848.72
2022-10-10T03:39:26.349Z,99842.47
2022-10-10T03:40:11.825Z,99852.78
2022-10-10T03:40:56.845Z,99846.81
2022-10-10T03:41:42.416Z,99847.41
2022-10-10T03:42:25.356Z,99847.34
2022-10-10T03:43:11.019Z,99848.06
2022-10-10T03:43:54.391Z,99852.44
2022-10-10T03:44:38.823Z,99844.59
2022-10-10T03:45:25.487Z,99847.34
2022-10-10T03:46:13.841Z,99843.56
2022-10-10T03:46:58.402Z,99848.72
2022-10-10T03:47:47.825Z,99841.34
2022-10-10T03:48:31.331Z,99851.25
2022-10-10T03:49:17.215Z,99849.63
2022-10-10T03:50:03.361Z,99845.28
2022-10-10T03:50:49.378Z,99843.88
2022-10-10T03:51:38.133Z,99846.81
2022-10-10T03:52:21.211Z,99850.13
2022-10-10T03:53:10.406Z,99844.69
2022-10-10T03:53:56.216Z,99847.63
2022-10-10T03:54:42.163Z,99846.00
2022-10-10T03:55:26.874Z,99842.97
2022-10-10T03:56:14.888Z,99846.53
2022-10-10T03:56:58.364Z,99846.00
2022-10-10T03:57:41.671Z,99847.41
2022-10-10T03:58:30.236Z,99842.59
2022-10-10T03:59:15.554Z,99848.88
2022-10-10T04:00:04.041Z,99847.47
2022-10-10T04:00:52.209Z,99845.84
2022-10-10T04:01:34.830Z,99848.28
2022-10-10T04:02:19.441Z,99849.63
2022-10-10T04:03:02.483Z,99844.16
2022-10-10T04:03:51.973Z,99841.44
2022-10-10T04:04:34.649Z,99844.69
2022-10-10T04:05:18.784Z,99849.03
2022-10-10T04:06:04.203Z,99844.69
2022-10-10T04:06:47.175Z,99843.94
2022-10-10T04:07:33.217Z,99846.66
2022-10-10T04:08:14.344Z,99841.94
2022-10-10T04:09:02.384Z,99838.63
2022-10-10T04:09:49.287Z,99839.75
2022-10-10T04:10:35.363Z,99840.53
2022-10-10T04:11:19.903Z,99843.56
2022-10-10T04:12:05.183Z,99837.38
2022-10-10T04:12:53.356Z,99840.91
2022-10-10T04:13:39.636Z,99838.41
2022-10-10T04:14:24.996Z,99833.75
2022-10-10T04:15:09.383Z,99839.50
2022-10-10T04:15:54.089Z,99834.88
2022-10-10T04:16:39.388Z,99837.59
2022-10-10T04:17:24.506Z,99835.75
2022-10-10T04:18:09.256Z,99832.38
2022-10-10T04:18:54.700Z,99836.28
2022-10-10T04:19:40.049Z,99831.84
2022-10-10T04:20:24.419Z,99828.91
2022-10-10T04:21:09.989Z,99834.88
2022-10-10T04:21:57.068Z,99826.16
2022-10-10T04:22:45.678Z,99835.69
2022-10-10T04:23:29.502Z,99828.38
2022-10-10T04:24:12.960Z,99830.28
2022-10-10T04:24:57.868Z,99832.22
2022-10-10T04:25:43.167Z,99830.22
2022-10-10T04:26:27.505Z,99832.22
2022-10-10T04:27:10.661Z,99832.50
2022-10-10T04:28:00.815Z,99828.97
2022-10-10T04:28:44.209Z,99828.09
2022-10-10T04:29:33.907Z,99830.06
2022-10-10T04:30:18.460Z,99825.13
2022-10-10T04:31:05.990Z,99833.84
2022-10-10T04:31:49.268Z,99829.78
2022-10-10T04:32:37.629Z,99830.28
2022-10-10T04:33:19.665Z,99825.13
2022-10-10T04:34:04.780Z,99827.56
2022-10-10T04:34:46.644Z,99826.25
2022-10-10T04:35:29.666Z,99819.16
2022-10-10T04:36:15.384Z,99823.22
2022-10-10T04:37:01.027Z,99822.63
2022-10-10T04:37:45.260Z,99824.03
2022-10-10T04:38:30.085Z,99813.72
2022-10-10T04:39:12.129Z,99823.50
2022-10-10T04:39:54.987Z,99818.88
2022-10-10T04:40:41.440Z,99818.06
2022-10-10T04:41:25.375Z,99815.84
2022-10-10T04:42:09.003Z,99819.59
2022-10-10T04:42:53.387Z,99819.38
2022-10-10T04:43:37.294Z,99814.50
2022-10-10T04:44:20.682Z,99819.91
2022-10-10T04:45:06.056Z,99815.03
2022-10-10T04:45:50.572Z,99813.94
2022-10-10T04:46:33.917Z,99820.19
2022-10-10T04:47:17.487Z,99820.50
2022-10-10T04:48:03.643Z,99819.00
2022-10-10T04:48:57.256Z,99817.16
2022-10-10T04:49:41.590Z,99819.16
2022-10-10T04:50:27.753Z,99810.09
2022-10-10T04:51:11.978Z,99815.25
2022-10-10T04:51:58.164Z,99819.38
2022-10-10T04:52:42.924Z,99818.78
2022-10-10T04:53:29.145Z,99817.53
2022-10-10T04:54:12.104Z,99823.44
2022-10-10T04:54:56.372Z,99817.25
2022-10-10T04:55:40.430Z,99818.66
2022-10-10T04:58:01.526Z,99817.03
2022-10-10T05:04:23.595Z,99814.50
2022-10-10T05:08:17.659Z,99814.28
2022-10-10T05:09:53.503Z,99815.91
2022-10-10T05:13:03.343Z,99813.72
2022-10-10T05:19:23.435Z,99817.53
2022-10-10T05:21:49.445Z,99813.72
2022-10-10T05:22:39.533Z,99816.47
2022-10-10T05:27:27.144Z,99818.66
2022-10-10T05:29:03.394Z,99813.19
2022-10-10T05:29:49.117Z,99814.81
2022-10-10T05:31:28.096Z,99817.84
2022-10-10T05:33:03.636Z,99817.53
2022-10-10T05:33:56.955Z,99818.13
2022-10-10T05:34:44.370Z,99818.06
2022-10-10T05:35:31.126Z,99814.00
2022-10-10T05:38:42.599Z,99815.41
2022-10-10T05:40:12.401Z,99807.47
2022-10-10T05:42:32.375Z,99805.56
2022-10-10T05:50:34.200Z,99804.50
2022-10-10T05:52:57.587Z,99809.34
2022-10-10T05:55:27.368Z,99811.59
2022-10-10T06:00:15.193Z,99817.53
2022-10-10T06:01:50.760Z,99814.22
2022-10-10T06:04:19.554Z,99817.53
2022-10-10T06:17:03.270Z,99819.75
2022-10-10T06:24:05.171Z,99822.47
2022-10-10T06:24:53.115Z,99823.84
2022-10-10T06:25:41.912Z,99819.75
2022-10-10T06:26:42.746Z,99821.38
2022-10-10T06:29:50.981Z,99815.31
2022-10-10T06:30:47.669Z,99816.94
2022-10-10T06:34:15.899Z,99820.03
2022-10-10T06:35:12.620Z,99822.69
2022-10-10T06:36:07.371Z,99823.50
2022-10-10T06:36:53.641Z,99824.84
2022-10-10T06:37:55.788Z,99823.44
2022-10-10T06:38:42.123Z,99820.72
2022-10-10T06:39:36.220Z,99823.22
2022-10-10T06:40:27.576Z,99823.72
2022-10-10T06:41:11.782Z,99822.41
2022-10-10T06:42:02.424Z,99825.66
2022-10-10T06:42:48.022Z,99821.31
2022-10-10T06:44:22.567Z,99820.78
2022-10-10T06:45:15.616Z,99815.56
2022-10-10T06:46:16.328Z,99814.22
2022-10-10T06:47:05.254Z,99815.84
2022-10-10T06:47:52.566Z,99824.53
2022-10-10T06:48:36.429Z,99817.16
2022-10-10T06:49:24.669Z,99825.13
2022-10-10T06:50:08.321Z,99818.88
2022-10-10T06:50:56.975Z,99816.44
2022-10-10T06:51:45.491Z,99815.31
2022-10-10T06:52:29.951Z,99822.09
2022-10-10T06:53:14.202Z,99820.50
2022-10-10T06:54:01.303Z,99819.09
2022-10-10T06:55:45.021Z,99822.63
2022-10-10T06:57:28.895Z,99827.78
2022-10-10T06:59:19.730Z,99827.19
2022-10-10T06:59:56.467Z,99826.16
2022-10-10T07:00:28.032Z,99827.28
2022-10-10T07:00:59.599Z,99816.88
2022-10-10T07:01:31.169Z,99820.72
2022-10-10T07:02:02.646Z,99826.75
2022-10-10T07:02:34.202Z,99826.69
2022-10-10T07:03:05.650Z,99824.47
2022-10-10T07:03:37.169Z,99829.94
2022-10-10T07:04:08.719Z,99828.81
2022-10-10T07:04:40.207Z,99829.13
2022-10-10T07:05:11.675Z,99828.59
2022-10-10T07:05:43.190Z,99832.66
2022-10-10T07:06:14.566Z,99826.97
2022-10-10T07:06:46.040Z,99831.63
2022-10-10T07:07:17.467Z,99831.84
2022-10-10T07:07:48.860Z,99835.69
2022-10-10T07:08:20.447Z,99829.19
2022-10-10T07:08:52.435Z,99835.16
2022-10-10T07:09:23.835Z,99829.72
2022-10-10T07:09:55.301Z,99826.16
2022-10-10T07:10:26.764Z,99832.22
2022-10-10T07:10:58.152Z,99827.56
2022-10-10T07:11:29.719Z,99832.00
2022-10-10T07:12:01.139Z,99836.03
2022-10-10T07:12:39.534Z,99826.16
2022-10-10T07:13:13.792Z,99830.22
2022-10-10T07:13:45.233Z,99832.66
2022-10-10T07:14:16.773Z,99828.53
2022-10-10T07:14:48.190Z,99829.63
2022-10-10T07:15:19.629Z,99830.16
2022-10-10T07:15:51.641Z,99835.09
2022-10-10T07:16:23.045Z,99826.59
2022-10-10T07:16:54.418Z,99835.91
2022-10-10T07:17:25.952Z,99833.69
2022-10-10T07:18:00.235Z,99834.78
2022-10-10T07:18:31.955Z,99835.09
2022-10-10T07:19:03.534Z,99834.22
2022-10-10T07:19:34.963Z,99837.22
2022-10-10T07:20:06.383Z,99835.31
2022-10-10T07:20:37.783Z,99841.59
2022-10-10T07:21:09.221Z,99836.13
2022-10-10T07:21:40.644Z,99837.22
2022-10-10T07:22:12.088Z,99832.06
2022-10-10T07:22:43.483Z,99838.13
2022-10-10T07:23:14.920Z,99835.91
2022-10-10T07:23:46.397Z,99823.28
2022-10-10T07:24:17.824Z,99831.47
2022-10-10T07:24:49.305Z,99827.63
2022-10-10T07:25:20.693Z,99827.06
2022-10-10T07:25:52.143Z,99832.50
2022-10-10T07:26:23.603Z,99832.81
2022-10-10T07:27:01.786Z,99828.16
2022-10-10T07:27:35.055Z,99834.44
2022-10-10T07:28:06.581Z,99841.50
2022-10-10T07:28:38.317Z,99833.03
2022-10-10T07:29:09.874Z,99838.78
2022-10-10T07:29:41.388Z,99838.78
2022-10-10T07:30:12.913Z,99842.63
2022-10-10T07:30:44.364Z,99838.78
2022-10-10T07:31:18.725Z,99838.56
2022-10-10T07:31:50.187Z,99837.16
2022-10-10T07:32:23.757Z,99840.41
2022-10-10T07:32:55.165Z,99846.16
2022-10-10T07:33:26.853Z,99845.34
2022-10-10T07:33:59.723Z,99843.13
2022-10-10T07:34:31.170Z,99837.38
2022-10-10T07:35:02.672Z,99832.44
2022-10-10T07:35:34.087Z,99837.38
2022-10-10T07:36:05.483Z,99834.34
2022-10-10T07:36:36.887Z,99841.72
2022-10-10T07:37:08.309Z,99848.28
2022-10-10T07:37:39.757Z,99840.63
2022-10-10T07:38:11.210Z,99837.88
2022-10-10T07:38:42.677Z,99837.88
2022-10-10T07:39:17.093Z,99840.31
2022-10-10T07:39:48.696Z,99841.44
2022-10-10T07:40:20.156Z,99836.50
2022-10-10T07:40:51.572Z,99839.22
2022-10-10T07:41:23.036Z,99837.28
2022-10-10T07:41:54.454Z,99841.94
2022-10-10T07:42:25.906Z,99841.94
2022-10-10T07:42:57.363Z,99836.50
2022-10-10T07:43:28.771Z,99823.66
2022-10-10T07:44:03.269Z,99827.28
2022-10-10T07:44:34.939Z,99832.44
2022-10-10T07:45:06.445Z,99826.16
2022-10-10T07:45:37.883Z,99835.16
2022-10-10T07:46:12.139Z,99830.00
2022-10-10T07:46:43.972Z,99824.25
2022-10-10T07:47:15.717Z,99827.50
2022-10-10T07:47:47.155Z,99832.13
2022-10-10T07:48:18.586Z,99831.63
2022-10-10T07:48:50.015Z,99830.50
2022-10-10T07:49:21.639Z,99833.25
2022-10-10T07:49:53.145Z,99836.28
2022-10-10T07:50:24.652Z,99834.34
2022-10-10T07:50:56.056Z,99838.19
2022-10-10T07:51:27.527Z,99838.41
2022-10-10T07:52:01.330Z,99837.28
2022-10-10T07:52:33.201Z,99839.22
2022-10-10T07:53:04.666Z,99839.50
2022-10-10T07:53:36.116Z,99836.19
2022-10-10T07:54:10.407Z,99838.41
2022-10-10T07:54:41.914Z,99842.75
2022-10-10T07:55:13.312Z,99840.03
2022-10-10T07:55:44.756Z,99839.22
2022-10-10T07:56:16.180Z,99846.28
2022-10-10T07:56:47.615Z,99839.81
2022-10-10T07:57:19.060Z,99844.47
2022-10-10T07:57:53.769Z,99839.00
2022-10-10T07:58:25.319Z,99840.84
2022-10-10T07:58:56.746Z,99840.03
2022-10-10T07:59:28.233Z,99845.47
2022-10-10T07:59:59.676Z,99847.09
2022-10-10T08:00:31.161Z,99846.81
2022-10-10T08:01:02.640Z,99841.66
2022-10-10T08:01:34.185Z,99845.47
2022-10-10T08:02:05.701Z,99850.34
2022-10-10T08:02:37.254Z,99842.97
2022-10-10T08:03:11.966Z,99846.81
2022-10-10T08:03:43.797Z,99849.25
2022-10-10T08:04:15.277Z,99847.09
2022-10-10T08:04:46.684Z,99845.47
2022-10-10T08:05:18.085Z,99847.09
2022-10-10T08:05:49.503Z,99845.72
2022-10-10T08:06:20.941Z,99845.19
2022-10-10T08:06:52.395Z,99847.91
2022-10-10T08:07:23.777Z,99838.91
2022-10-10T08:07:55.296Z,99843.56
2022-10-10T08:08:26.791Z,99844.59
2022-10-10T08:08:58.258Z,99848.91
2022-10-10T08:09:29.757Z,99834.28
2022-10-10T08:10:01.227Z,99841.88
2022-10-10T08:10:32.633Z,99845.72
2022-10-10T08:11:04.055Z,99841.66
2022-10-10T08:11:35.506Z,99845.19
2022-10-10T08:12:06.923Z,99840.72
2022-10-10T08:12:38.345Z,99840.84
2022-10-10T08:13:09.760Z,99840.25
2022-10-10T08:13:41.143Z,99844.28
2022-10-10T08:14:12.676Z,99848.91
2022-10-10T08:14:44.106Z,99844.28
2022-10-10T08:15:15.566Z,99842.69
2022-10-10T08:15:47.108Z,99843.78
2022-10-10T08:16:18.534Z,99846.53
2022-10-10T08:16:50.082Z,99843.47
2022-10-10T08:17:21.467Z,99839.63
2022-10-10T08:17:53.703Z,99841.34
2022-10-10T08:18:25.303Z,99841.06
2022-10-10T08:18:56.719Z,99847.63
2022-10-10T08:19:28.228Z,99850.34
2022-10-10T08:19:59.615Z,99848.72
2022-10-10T08:20:31.006Z,99850.66
2022-10-10T08:21:02.522Z,99853.91
2022-10-10T08:21:33.993Z,99850.44
2022-10-10T08:22:05.469Z,99843.28
2022-10-10T08:22:37.027Z,99847.63
2022-10-10T08:23:08.570Z,99850.66
2022-10-10T08:23:40.011Z,99852.56
2022-10-10T08:24:11.517Z,99844.09
2022-10-10T08:24:42.995Z,99844.59
2022-10-10T08:25:14.531Z,99852.56
2022-10-10T08:25:46.010Z,99855.00
2022-10-10T08:26:17.581Z,99854.72
2022-10-10T08:26:48.986Z,99856.63
2022-10-10T08:27:20.559Z,99847.63
2022-10-10T08:27:52.007Z,99849.25
2022-10-10T08:28:23.546Z,99854.19
2022-10-10T08:28:54.994Z,99855.81
2022-10-10T08:29:26.537Z,99862.69
2022-10-10T08:29:58.087Z,99846.00
2022-10-10T08:30:29.525Z,99849.03
2022-10-10T08:31:03.121Z,99847.09
2022-10-10T08:31:36.922Z,99845.47
2022-10-10T08:32:08.388Z,99842.47
2022-10-10T08:32:39.826Z,99854.19
2022-10-10T08:33:11.256Z,99844.91
2022-10-10T08:33:42.706Z,99850.06
2022-10-10T08:34:14.126Z,99851.47
2022-10-10T08:34:45.562Z,99848.91
2022-10-10T08:35:17.079Z,99848.44
2022-10-10T08:35:48.539Z,99848.91
2022-10-10T08:36:20.107Z,99849.72
2022-10-10T08:36:51.518Z,99841.06
2022-10-10T08:37:25.856Z,99848.63
2022-10-10T08:38:01.156Z,99845.47
2022-10-10T08:38:32.561Z,99853.38
2022-10-10T08:39:04.023Z,99848.50
2022-10-10T08:39:35.469Z,99844.38
2022-10-10T08:40:06.937Z,99856.09
2022-10-10T08:40:38.383Z,99846.00
2022-10-10T08:41:09.894Z,99844.91
2022-10-10T08:41:41.311Z,99849.25
2022-10-10T08:42:12.730Z,99851.47
2022-10-10T08:42:49.081Z,99848.13
2022-10-10T08:43:24.113Z,99851.16
2022-10-10T08:43:55.577Z,99849.25
2022-10-10T08:44:26.974Z,99849.84
2022-10-10T08:44:58.407Z,99844.91
2022-10-10T08:45:29.869Z,99848.22
2022-10-10T08:46:01.487Z,99848.44
2022-10-10T08:46:32.891Z,99852.78
2022-10-10T08:47:04.346Z,99853.59
2022-10-10T08:47:35.773Z,99841.25
2022-10-10T08:48:07.203Z,99850.66
2022-10-10T08:48:40.762Z,99851.47
2022-10-10T08:49:14.209Z,99856.09
2022-10-10T08:49:45.849Z,99844.59
2022-10-10T08:50:17.266Z,99849.84
2022-10-10T08:50:48.822Z,99843.06
2022-10-10T08:51:20.246Z,99841.66
2022-10-10T08:51:51.778Z,99844.91
2022-10-10T08:52:23.215Z,99847.91
2022-10-10T08:52:54.992Z,99842.75
2022-10-10T08:53:26.419Z,99844.59
2022-10-10T08:53:57.940Z,99848.50
2022-10-10T08:54:29.330Z,99849.09
2022-10-10T08:55:00.833Z,99847.41
2022-10-10T08:55:32.318Z,99848.50
2022-10-10T08:56:03.776Z,99846.28
2022-10-10T08:56:35.164Z,99853.09
2022-10-10T08:57:06.558Z,99843.28
2022-10-10T08:57:37.973Z,99849.31
2022-10-10T08:58:09.429Z,99845.78
2022-10-10T08:58:40.852Z,99848.50
2022-10-10T08:59:12.275Z,99849.84
2022-10-10T08:59:43.779Z,99852.56
2022-10-10T09:00:15.715Z,99846.28
2022-10-10T09:00:47.787Z,99844.38
2022-10-10T09:01:19.420Z,99851.16
2022-10-10T09:02:18.422Z,99844.59
2022-10-10T09:02:57.963Z,99848.13
2022-10-10T09:03:29.545Z,99851.97
2022-10-10T09:04:00.973Z,99852.78
2022-10-10T09:04:32.420Z,99853.59
2022-10-10T09:05:03.964Z,99852.28
2022-10-10T09:05:35.377Z,99846.69
2022-10-10T09:06:06.776Z,99853.91
2022-10-10T09:06:38.196Z,99849.53
2022-10-10T09:07:09.595Z,99849.84
2022-10-10T09:07:41.034Z,99853.97
2022-10-10T09:08:12.531Z,99851.16
2022-10-10T09:08:43.940Z,99853.38
2022-10-10T09:09:15.442Z,99864.28
2022-10-10T09:09:46.994Z,99853.09
2022-10-10T09:10:18.506Z,99857.72
2022-10-10T09:10:50.011Z,99852.06
2022-10-10T09:11:21.433Z,99850.94
2022-10-10T09:11:52.908Z,99851.47
2022-10-10T09:12:24.338Z,99843.78
2022-10-10T09:12:55.766Z,99850.94
2022-10-10T09:13:27.145Z,99841.44
2022-10-10T09:13:58.522Z,99842.47
2022-10-10T09:14:30.005Z,99849.84
2022-10-10T09:15:02.814Z,99847.09
2022-10-10T09:15:34.425Z,99840.63
2022-10-10T09:16:05.832Z,99841.66
2022-10-10T09:16:37.269Z,99847.69
2022-10-10T09:17:08.819Z,99853.38
2022-10-10T09:17:40.226Z,99844.91
2022-10-10T09:18:11.748Z,99846.81
2022-10-10T09:18:45.032Z,99849.31
2022-10-10T09:19:18.291Z,99850.13
2022-10-10T09:19:50.025Z,99846.88
2022-10-10T09:20:24.525Z,99854.47
2022-10-10T09:20:56.156Z,99855.00
2022-10-10T09:21:27.741Z,99857.22
2022-10-10T09:21:59.190Z,99853.38
2022-10-10T09:22:30.586Z,99854.19
2022-10-10T09:23:02.030Z,99855.00
2022-10-10T09:23:33.503Z,99854.72
2022-10-10T09:24:04.968Z,99861.47
2022-10-10T09:24:38.780Z,99855.50
2022-10-10T09:25:12.768Z,99856.91
2022-10-10T09:25:44.201Z,99857.22
2022-10-10T09:26:15.602Z,99858.03
2022-10-10T09:26:46.996Z,99855.31
2022-10-10T09:27:18.767Z,99856.81
2022-10-10T09:27:50.217Z,99851.88
2022-10-10T09:28:21.745Z,99848.91